INFORMACIÓN METAR y TAF
METAR FOR EKSB
ADDS - METARS form results

(0739 UTC 15 April 2021)
Data provider http://aviationweather.gov/metar/data/
 
METAR text: EKSB 150720Z 01011KT CAVOK 06/02 Q1031
Conditions at: EKSB (SONDERBORG AIRPO, DK) observed 0720 UTC 15 April 2021
Temperature: 6.0°C (43°F)
Dewpoint: 2.0°C (36°F) [RH = 75%]
Pressure (altimeter): 30.44 inches Hg (1031.0 mb)
Winds: from the N (10 degrees) at 13 MPH (11 knots; 5.7 m/s)
Visibility: 6 or more miles (10+ km)
Ceiling: ceiling and visibility are OK
Clouds: unknown
Weather: no significant weather observed at this time

METAR text: EKSB 150650Z 01007KT CAVOK 06/02 Q1031
Conditions at: EKSB (SONDERBORG AIRPO, DK) observed 0650 UTC 15 April 2021
Temperature: 6.0°C (43°F)
Dewpoint: 2.0°C (36°F) [RH = 75%]
Pressure (altimeter): 30.44 inches Hg (1031.0 mb)
Winds: from the N (10 degrees) at 8 MPH (7 knots; 3.6 m/s)
Visibility: 6 or more miles (10+ km)
Ceiling: ceiling and visibility are OK
Clouds: unknown
Weather: no significant weather observed at this time

Forecast for: EKSB (SONDERBORG AIRPO, DK)
Text: TAF EKSB 150555Z 1506/1514 02008KT 9999 SCT030
Forecast period: 0600 to 1400 UTC 15 April 2021
Forecast type: FROM: standard forecast or significant change
Winds: from the NNE (20 degrees) at 9 MPH (8 knots; 4.1 m/s)
Visibility: 6 or more miles (10+ km)
Ceiling: at least 12,000 feet AGL
Clouds: scattered clouds at 3000 feet AGL
Weather: no significant weather forecast for this period

 MAPA DE AEROPUERTO

 INFORMACIÓN DE PISTA
Pista 14 Longitud 5895 ft Ancho 98 ft
Elevación 12 ft Umbral desplazado 0 ft Rumbo de pista 139
Pista 32 Longitud 5895 ft Ancho 98 ft
Elevación 21 ft Umbral desplazado 0 ft Rumbo de pista 319

 FRECUANCIAS DEL AEROPUERTO
Tipo AFIS Nombre AFIS Frecuencia 126.4 MHZ

 RADIO AYUDAS DEL AEROPUERTO



Powered by Virtual Airlines Manager [v2.6.2]